Time;durP1;ratioP1;P1;durP2;ratioP2;P2;SDS_P1;SDS_P2;PMS_P1;PMS_P2;Temp;Humidity;BMP_temperature;BMP_pressure;BME280_temperature;BME280_humidity;BME280_pressure;Samples;Min_cycle;Max_cycle;Signal;HPM_P1;HPM_P2
2022/03/23 04:00:37;;;;;;;16.60;14.93;;;0.00;99.90;;;;;;5806624;23;20229;-83
2022/03/23 04:03:03;;;;;;;19.97;18.03;;;-0.10;99.90;;;;;;4975480;28;20284;-79
2022/03/23 04:05:29;;;;;;;19.07;17.17;;;0.00;99.90;;;;;;4969414;28;20182;-82
2022/03/23 04:07:56;;;;;;;23.10;20.97;;;0.00;99.90;;;;;;4959207;29;20260;-80
2022/03/23 04:10:22;;;;;;;19.23;17.13;;;-0.10;99.90;;;;;;4957473;29;20196;-80
2022/03/23 04:12:48;;;;;;;22.03;18.13;;;-0.10;99.90;;;;;;4968202;29;20253;-79
2022/03/23 04:15:14;;;;;;;19.23;17.40;;;-0.10;99.90;;;;;;4988997;28;20188;-82
2022/03/23 04:17:41;;;;;;;18.10;16.20;;;0.00;99.90;;;;;;5004407;23;20236;-78
2022/03/23 04:20:11;;;;;;;18.90;16.33;;;0.00;99.90;;;;;;4993901;28;20181;-79
2022/03/23 04:22:38;;;;;;;26.00;23.70;;;0.00;99.90;;;;;;4987739;28;20208;-79
2022/03/23 04:25:07;;;;;;;22.50;17.17;;;0.00;99.90;;;;;;4989268;28;20224;-77
2022/03/23 04:27:34;;;;;;;19.33;16.90;;;0.00;99.90;;;;;;4974031;28;20277;-78
2022/03/23 04:30:00;;;;;;;18.97;17.07;;;-0.10;99.90;;;;;;4961476;28;20186;-80
2022/03/23 04:32:26;;;;;;;20.27;18.20;;;-0.20;99.90;;;;;;4958512;28;21390;-79
2022/03/23 04:34:52;;;;;;;16.80;15.07;;;-0.20;99.90;;;;;;4960338;28;20193;-78
2022/03/23 04:37:18;;;;;;;20.57;18.17;;;-0.30;99.90;;;;;;4957670;28;20205;-80
2022/03/23 04:39:43;;;;;;;18.20;16.13;;;-0.30;99.90;;;;;;4957905;28;20228;-79
2022/03/23 04:42:09;;;;;;;16.43;14.70;;;-0.40;99.90;;;;;;4956336;28;20189;-80
2022/03/23 04:44:35;;;;;;;26.30;24.00;;;-0.40;99.90;;;;;;4957850;28;20182;-79
2022/03/23 04:47:01;;;;;;;27.73;25.23;;;-0.40;99.90;;;;;;4963229;28;20212;-78
2022/03/23 04:49:27;;;;;;;21.53;19.43;;;-0.40;99.90;;;;;;4958615;29;20361;-80
2022/03/23 04:51:52;;;;;;;22.90;20.80;;;-0.40;99.90;;;;;;4965805;28;20617;-80
2022/03/23 04:54:18;;;;;;;18.57;16.67;;;-0.40;99.90;;;;;;4957901;29;20186;-78
2022/03/23 04:56:44;;;;;;;23.23;21.07;;;-0.40;99.90;;;;;;4955204;28;20296;-81
2022/03/23 04:59:10;;;;;;;21.97;15.60;;;-0.40;99.90;;;;;;4960342;29;20213;-81
2022/03/23 05:01:35;;;;;;;18.83;16.90;;;-0.40;99.90;;;;;;4959218;28;20185;-81
2022/03/23 05:04:01;;;;;;;20.00;17.90;;;-0.40;99.90;;;;;;4959083;29;20240;-80
2022/03/23 05:06:27;;;;;;;19.53;17.53;;;-0.40;99.90;;;;;;4959017;28;20297;-79
2022/03/23 05:08:53;;;;;;;19.73;17.40;;;-0.50;99.90;;;;;;4958571;29;20185;-80
2022/03/23 05:11:19;;;;;;;21.80;16.93;;;-0.50;99.90;;;;;;4957864;29;20726;-78
2022/03/23 05:13:45;;;;;;;27.00;19.67;;;-0.50;99.90;;;;;;4960411;28;20213;-80
2022/03/23 05:16:11;;;;;;;26.27;19.47;;;-0.50;99.90;;;;;;4959229;28;20224;-80
2022/03/23 05:18:36;;;;;;;19.70;17.60;;;-0.60;99.90;;;;;;4957222;29;20205;-80
2022/03/23 05:21:02;;;;;;;19.60;17.53;;;-0.50;99.90;;;;;;4958037;29;20204;-80
2022/03/23 05:23:28;;;;;;;20.80;18.20;;;-0.50;99.90;;;;;;4958823;29;20197;-80
2022/03/23 05:25:54;;;;;;;22.07;19.73;;;-0.50;99.90;;;;;;4957899;28;20201;-78
2022/03/23 05:28:20;;;;;;;22.73;18.23;;;-0.40;99.90;;;;;;4958885;29;20197;-79
2022/03/23 05:30:46;;;;;;;22.77;20.47;;;-0.50;99.90;;;;;;4960354;28;20190;-78
2022/03/23 05:33:12;;;;;;;25.00;20.57;;;-0.40;99.90;;;;;;4961232;29;20253;-81
2022/03/23 05:35:38;;;;;;;24.57;18.40;;;-0.40;99.90;;;;;;4958045;28;20209;-79
2022/03/23 05:38:04;;;;;;;21.50;18.77;;;-0.40;99.90;;;;;;4958708;29;20229;-81
2022/03/23 05:40:29;;;;;;;22.33;18.73;;;-0.30;99.90;;;;;;4959075;29;20177;-81
2022/03/23 05:42:55;;;;;;;21.50;17.70;;;-0.30;99.90;;;;;;4957687;29;20609;-80
2022/03/23 05:45:21;;;;;;;18.03;16.23;;;-0.20;99.90;;;;;;4972065;28;20189;-79
2022/03/23 05:47:48;;;;;;;22.67;17.70;;;-0.20;99.90;;;;;;4959558;29;20194;-79
2022/03/23 05:50:14;;;;;;;17.93;15.00;;;-0.10;99.90;;;;;;4962160;29;20280;-81
2022/03/23 05:52:40;;;;;;;19.33;17.10;;;-0.10;99.90;;;;;;4958913;29;20189;-81
2022/03/23 05:55:07;;;;;;;22.93;20.63;;;0.00;99.90;;;;;;4972246;29;20209;-78
2022/03/23 05:57:34;;;;;;;18.07;15.90;;;0.20;99.90;;;;;;4958954;28;20232;-81
2022/03/23 06:00:00;;;;;;;18.70;16.40;;;0.30;99.90;;;;;;4959045;28;20190;-81
2022/03/23 06:02:27;;;;;;;31.07;28.27;;;0.40;99.90;;;;;;4958144;29;20182;-80
2022/03/23 06:04:52;;;;;;;30.17;27.57;;;0.40;99.90;;;;;;4958678;29;20297;-80
2022/03/23 06:07:18;;;;;;;37.63;34.80;;;0.50;99.90;;;;;;4956429;28;20205;-81
2022/03/23 06:09:44;;;;;;;26.27;23.93;;;0.50;99.90;;;;;;4957536;29;20282;-81
2022/03/23 06:12:11;;;;;;;19.47;15.80;;;0.50;99.90;;;;;;4958887;29;20185;-80
2022/03/23 06:14:38;;;;;;;22.33;17.17;;;0.60;99.90;;;;;;4964810;28;20522;-80
2022/03/23 06:17:06;;;;;;;19.23;17.43;;;0.70;99.90;;;;;;4960043;28;20316;-81
2022/03/23 06:19:31;;;;;;;25.43;16.03;;;0.80;99.90;;;;;;4956262;29;20214;-76
2022/03/23 06:21:57;;;;;;;22.33;16.83;;;1.00;99.90;;;;;;4953724;28;20184;-76
2022/03/23 06:24:23;;;;;;;25.27;14.17;;;1.10;99.90;;;;;;4953583;28;20207;-76
2022/03/23 06:26:48;;;;;;;17.13;13.27;;;1.30;99.90;;;;;;4952404;28;20194;-76
2022/03/23 06:29:14;;;;;;;17.10;14.50;;;1.40;99.90;;;;;;4953141;29;20197;-77
2022/03/23 06:31:40;;;;;;;22.77;18.77;;;1.50;99.90;;;;;;4952391;29;20189;-76
2022/03/23 06:34:07;;;;;;;22.37;20.33;;;1.60;99.90;;;;;;4952349;29;20197;-76
2022/03/23 06:36:34;;;;;;;20.90;18.70;;;1.70;99.90;;;;;;4962577;28;20277;-75
2022/03/23 06:39:00;;;;;;;16.10;13.60;;;1.80;99.90;;;;;;4965078;29;20217;-76
2022/03/23 06:41:25;;;;;;;19.90;15.27;;;2.00;99.90;;;;;;4949459;28;20544;-76
2022/03/23 06:43:51;;;;;;;20.00;15.33;;;2.20;99.90;;;;;;4944999;28;20700;-76
2022/03/23 06:46:17;;;;;;;16.87;15.30;;;2.40;99.90;;;;;;4953041;28;20669;-76
2022/03/23 06:48:42;;;;;;;15.43;13.83;;;2.90;99.90;;;;;;4952896;28;20190;-76
2022/03/23 06:51:08;;;;;;;22.77;20.67;;;3.50;99.90;;;;;;4953056;28;20284;-76
2022/03/23 06:53:34;;;;;;;19.63;17.83;;;4.20;99.90;;;;;;4952965;28;20212;-75
2022/03/23 06:56:00;;;;;;;15.47;13.83;;;4.70;99.90;;;;;;4951421;28;20685;-76
2022/03/23 06:58:26;;;;;;;17.00;13.03;;;5.20;99.90;;;;;;4951300;29;20210;-77
2022/03/23 07:00:51;;;;;;;15.17;13.57;;;5.80;99.90;;;;;;4951733;28;20182;-76
2022/03/23 07:03:17;;;;;;;19.50;17.63;;;6.50;99.90;;;;;;4951316;29;20182;-77
2022/03/23 07:05:43;;;;;;;16.03;14.33;;;7.10;99.90;;;;;;4952820;28;20225;-77
2022/03/23 07:10:54;;;;;;;14.23;12.70;;;8.20;99.90;;;;;;4952651;29;20191;-76
2022/03/23 07:13:19;;;;;;;15.20;13.13;;;8.70;99.90;;;;;;4951401;29;20709;-77
2022/03/23 07:15:47;;;;;;;16.70;14.97;;;8.60;99.90;;;;;;4952737;28;20209;-76
2022/03/23 07:18:13;;;;;;;16.53;14.83;;;8.90;99.90;;;;;;4952494;28;20292;-76
2022/03/23 07:20:39;;;;;;;15.90;13.43;;;9.10;99.70;;;;;;4957647;28;20228;-73
2022/03/23 07:23:04;;;;;;;18.13;14.67;;;9.30;97.90;;;;;;4954708;28;20174;-76
2022/03/23 07:25:30;;;;;;;16.80;14.43;;;9.10;97.30;;;;;;4952538;28;20211;-76
2022/03/23 07:27:56;;;;;;;16.73;14.47;;;8.80;97.60;;;;;;4952755;29;20665;-77
2022/03/23 07:30:23;;;;;;;16.93;13.47;;;8.50;97.50;;;;;;4959483;28;20190;-78
2022/03/23 07:32:51;;;;;;;17.20;15.60;;;8.50;98.10;;;;;;4952702;29;20192;-76
2022/03/23 07:35:17;;;;;;;16.93;15.27;;;8.90;97.80;;;;;;4952802;28;20188;-76
2022/03/23 07:37:43;;;;;;;16.83;15.07;;;9.10;97.00;;;;;;4950576;29;20209;-76
2022/03/23 07:40:09;;;;;;;15.97;14.40;;;9.10;97.00;;;;;;4951320;28;20186;-76
2022/03/23 07:42:35;;;;;;;17.80;16.00;;;9.00;96.60;;;;;;4953680;28;20193;-76
2022/03/23 07:45:01;;;;;;;16.27;14.33;;;8.40;97.40;;;;;;4952031;29;20570;-76
2022/03/23 07:47:27;;;;;;;19.07;16.63;;;8.30;98.10;;;;;;4950954;28;20201;-77
2022/03/23 07:49:53;;;;;;;17.97;15.43;;;8.80;98.20;;;;;;4952475;28;20178;-77
2022/03/23 07:52:18;;;;;;;17.20;15.13;;;9.60;96.50;;;;;;4951113;29;20189;-77
2022/03/23 07:54:45;;;;;;;16.97;15.27;;;10.00;95.20;;;;;;4952349;28;20213;-76
2022/03/23 07:57:11;;;;;;;15.80;14.10;;;10.40;94.30;;;;;;4951717;28;20201;-76
2022/03/23 07:59:37;;;;;;;15.63;14.03;;;10.50;93.00;;;;;;4952190;28;20222;-76
2022/03/23 08:02:03;;;;;;;16.63;14.93;;;10.30;92.10;;;;;;4952124;29;20244;-77
2022/03/23 08:04:29;;;;;;;14.67;13.03;;;10.30;92.40;;;;;;4953636;29;20216;-77
2022/03/23 08:06:55;;;;;;;14.23;12.80;;;10.70;92.20;;;;;;4953708;28;20581;-77
2022/03/23 08:09:21;;;;;;;13.50;12.17;;;10.70;91.00;;;;;;4955077;28;20190;-77
2022/03/23 08:11:46;;;;;;;13.97;12.33;;;10.80;89.00;;;;;;4956948;28;20597;-77
2022/03/23 08:14:12;;;;;;;24.03;17.33;;;10.90;90.30;;;;;;4958934;28;20658;-76
2022/03/23 08:16:38;;;;;;;16.90;13.93;;;11.30;88.90;;;;;;4955618;28;20592;-77
2022/03/23 08:19:04;;;;;;;15.30;13.70;;;11.90;87.10;;;;;;4943650;28;20373;-77
2022/03/23 08:21:30;;;;;;;15.23;12.47;;;12.30;84.70;;;;;;4952632;29;20186;-76
2022/03/23 08:23:56;;;;;;;14.23;12.77;;;12.70;81.50;;;;;;4947580;29;20190;-77
2022/03/23 08:26:22;;;;;;;15.47;12.43;;;12.60;81.60;;;;;;4941071;29;20215;-77
2022/03/23 08:28:47;;;;;;;15.47;13.00;;;13.10;80.00;;;;;;4939416;29;20208;-77
2022/03/23 08:31:14;;;;;;;14.80;12.23;;;13.40;78.40;;;;;;4939013;29;20596;-77
2022/03/23 08:33:41;;;;;;;19.17;13.37;;;13.60;76.60;;;;;;4938084;29;20186;-77
2022/03/23 08:36:08;;;;;;;15.40;13.10;;;13.40;75.20;;;;;;4938528;29;20240;-77
2022/03/23 08:38:34;;;;;;;16.37;13.43;;;13.20;74.80;;;;;;4937515;29;20309;-77
2022/03/23 08:41:00;;;;;;;17.17;13.30;;;13.30;74.70;;;;;;4939133;29;20189;-77
2022/03/23 08:43:26;;;;;;;15.00;13.13;;;13.80;73.80;;;;;;4946385;29;20555;-77
2022/03/23 08:45:52;;;;;;;19.03;13.87;;;14.10;69.80;;;;;;4957633;28;20208;-77
2022/03/23 08:48:18;;;;;;;15.73;14.13;;;14.00;69.10;;;;;;4953135;29;20611;-77
2022/03/23 08:50:48;;;;;;;15.80;13.83;;;14.10;68.40;;;;;;4957353;28;20186;-77
2022/03/23 08:53:14;;;;;;;15.73;14.07;;;14.40;67.90;;;;;;4962858;29;20185;-77
2022/03/23 08:55:40;;;;;;;20.13;15.90;;;14.70;65.30;;;;;;4961471;28;20601;-77
2022/03/23 08:58:07;;;;;;;17.47;15.67;;;14.60;64.70;;;;;;4969816;28;20437;-76
2022/03/23 09:00:33;;;;;;;18.37;16.30;;;14.80;63.70;;;;;;4956960;28;20202;-77
2022/03/23 09:02:59;;;;;;;19.17;16.67;;;15.00;63.10;;;;;;4957073;29;20674;-77
2022/03/23 09:05:25;;;;;;;20.13;18.27;;;15.00;64.00;;;;;;4957567;28;20178;-77
2022/03/23 09:07:51;;;;;;;22.63;20.07;;;15.60;62.30;;;;;;4971872;28;20184;-77
2022/03/23 09:10:18;;;;;;;21.97;19.77;;;16.00;59.00;;;;;;4969051;28;20250;-76
2022/03/23 09:12:44;;;;;;;18.47;16.57;;;16.30;57.50;;;;;;4968233;29;20186;-77
2022/03/23 09:15:13;;;;;;;17.40;15.53;;;16.50;55.60;;;;;;4962490;28;20646;-75
2022/03/23 09:17:40;;;;;;;18.77;16.83;;;16.70;55.80;;;;;;4966313;28;20257;-77
2022/03/23 09:20:07;;;;;;;18.27;16.33;;;17.00;56.20;;;;;;4960527;28;20225;-77
2022/03/23 09:22:36;;;;;;;20.43;15.60;;;17.60;55.50;;;;;;4962916;28;20190;-77
2022/03/23 09:25:06;;;;;;;20.37;16.63;;;17.90;52.60;;;;;;4961929;29;20253;-78
2022/03/23 09:27:34;;;;;;;19.70;16.30;;;17.70;52.90;;;;;;4961158;28;20213;-77
2022/03/23 09:30:01;;;;;;;19.23;15.33;;;17.90;53.00;;;;;;4960502;29;20657;-77
2022/03/23 09:32:26;;;;;;;19.33;16.80;;;18.20;50.90;;;;;;4959857;28;20186;-78
2022/03/23 09:34:52;;;;;;;19.37;15.43;;;18.00;52.00;;;;;;4957855;28;20182;-77
2022/03/23 09:40:04;;;;;;;20.23;15.57;;;18.20;50.30;;;;;;4955085;29;20189;-77
2022/03/23 09:42:31;;;;;;;20.23;15.27;;;18.70;50.40;;;;;;4954619;29;20186;-78
2022/03/23 09:44:58;;;;;;;16.50;14.70;;;19.00;49.20;;;;;;4955857;29;20246;-78
2022/03/23 09:47:24;;;;;;;19.60;16.03;;;19.10;49.30;;;;;;4955337;28;20209;-77
2022/03/23 09:49:50;;;;;;;18.20;16.17;;;19.30;49.50;;;;;;4956226;28;20181;-77
2022/03/23 09:52:16;;;;;;;18.70;16.70;;;19.20;48.00;;;;;;4957852;28;20654;-77
2022/03/23 09:54:45;;;;;;;17.92;16.10;;;19.40;46.70;;;;;;4958012;28;20185;-77
2022/03/23 09:57:12;;;;;;;20.60;14.83;;;19.60;46.80;;;;;;4961938;28;20202;-76
2022/03/23 09:59:38;;;;;;;16.47;14.63;;;19.80;45.90;;;;;;4968996;28;20624;-77
2022/03/23 10:02:03;;;;;;;15.45;13.88;;;19.50;44.10;;;;;;4955761;28;20177;-77
2022/03/23 10:05:13;;;;;;;16.67;14.48;;;19.80;45.40;;;;;;4960833;29;20313;-76
2022/03/23 10:07:55;;;;;;;17.15;15.50;;;20.40;43.10;;;;;;4957839;28;20237;-76
2022/03/23 10:10:49;;;;;;;18.73;16.73;;;20.70;43.30;;;;;;4955608;28;20221;-76
2022/03/23 10:14:02;;;;;;;17.48;16.05;;;21.30;41.70;;;;;;4957054;28;20289;-77
2022/03/23 10:17:02;;;;;;;17.00;15.20;;;21.90;40.00;;;;;;4967437;23;20230;-73
2022/03/23 10:19:28;;;;;;;17.13;15.65;;;21.40;39.20;;;;;;4934598;29;20225;-73
2022/03/23 10:21:54;;;;;;;15.75;14.30;;;21.40;39.40;;;;;;4934835;29;20178;-73
2022/03/23 10:24:19;;;;;;;17.77;14.57;;;21.50;39.20;;;;;;4934512;29;20269;-73
2022/03/23 10:26:49;;;;;;;15.35;13.88;;;21.50;39.00;;;;;;4934422;29;20737;-73
2022/03/23 10:29:24;;;;;;;14.85;12.85;;;21.70;38.50;;;;;;4933622;29;20197;-73
2022/03/23 10:32:05;;;;;;;14.18;12.80;;;21.80;37.10;;;;;;4934798;29;20181;-73
2022/03/23 10:34:46;;;;;;;17.15;15.43;;;22.40;37.50;;;;;;4949332;29;20197;-73
2022/03/23 10:37:14;;;;;;;16.88;15.07;;;22.70;36.50;;;;;;4934264;29;20210;-73
2022/03/23 10:39:40;;;;;;;19.85;17.88;;;22.60;36.30;;;;;;4934513;29;20214;-73
2022/03/23 10:42:12;;;;;;;17.10;15.40;;;22.40;36.90;;;;;;4934550;29;20182;-73
2022/03/23 10:44:38;;;;;;;18.83;17.02;;;22.10;37.30;;;;;;4949218;29;20266;-73
2022/03/23 10:47:05;;;;;;;15.30;13.80;;;22.50;34.90;;;;;;4933809;29;20198;-73
2022/03/23 10:49:38;;;;;;;15.20;13.80;;;23.10;34.60;;;;;;4948866;29;20194;-73
2022/03/23 10:52:16;;;;;;;16.58;14.30;;;23.80;34.50;;;;;;4933292;29;20190;-73
2022/03/23 10:55:00;;;;;;;14.50;13.10;;;23.80;34.50;;;;;;4934302;29;20182;-73
2022/03/23 10:57:44;;;;;;;17.38;15.15;;;23.80;34.30;;;;;;4933646;29;20220;-73
2022/03/23 11:00:17;;;;;;;14.93;13.27;;;23.60;34.40;;;;;;4934472;29;20266;-73
2022/03/23 11:02:47;;;;;;;13.90;12.70;;;23.40;34.60;;;;;;4934338;29;20178;-73
2022/03/23 11:05:37;;;;;;;13.82;12.63;;;23.80;32.50;;;;;;4949294;29;20186;-73
2022/03/23 11:08:09;;;;;;;18.00;16.10;;;24.30;34.10;;;;;;4933642;29;20237;-73
2022/03/23 11:16:28;;;;;;;19.77;15.10;;;23.70;33.90;;;;;;4934050;29;20316;-73
2022/03/23 11:19:12;;;;;;;16.83;13.52;;;23.70;33.90;;;;;;4933473;29;20623;-73
2022/03/23 11:22:11;;;;;;;19.08;12.75;;;24.00;33.60;;;;;;4933928;29;20217;-74
2022/03/23 11:24:42;;;;;;;14.00;12.65;;;25.00;33.10;;;;;;4932734;29;20707;-73
2022/03/23 11:27:10;;;;;;;15.18;13.85;;;25.00;32.90;;;;;;4933636;29;20202;-73
2022/03/23 11:29:37;;;;;;;15.95;13.25;;;25.00;32.70;;;;;;4932915;29;20607;-73
2022/03/23 11:32:08;;;;;;;13.43;12.02;;;25.10;31.30;;;;;;4934769;29;20261;-73
2022/03/23 11:34:36;;;;;;;12.82;11.60;;;25.80;31.00;;;;;;4933874;29;20190;-74
2022/03/23 11:37:04;;;;;;;13.27;11.98;;;26.60;31.30;;;;;;4933642;29;20754;-73
2022/03/23 11:39:31;;;;;;;11.18;10.18;;;26.50;30.40;;;;;;4948546;29;20221;-73
2022/03/23 11:41:58;;;;;;;13.35;11.60;;;25.80;30.40;;;;;;4933761;29;20174;-74
2022/03/23 11:44:26;;;;;;;11.95;10.95;;;25.70;30.00;;;;;;4936198;29;20269;-73
2022/03/23 11:46:59;;;;;;;13.15;11.75;;;25.80;29.90;;;;;;4935126;29;20202;-74
2022/03/23 11:49:33;;;;;;;14.50;12.45;;;25.60;30.20;;;;;;4933703;29;20198;-74
2022/03/23 11:52:15;;;;;;;13.43;12.25;;;26.00;30.00;;;;;;4933900;29;20676;-73
2022/03/23 11:57:54;;;;;;;14.38;11.52;;;26.90;30.40;;;;;;4937350;29;20213;-73
2022/03/23 12:00:21;;;;;;;12.10;10.93;;;27.50;29.00;;;;;;4936973;29;20240;-74
2022/03/23 12:02:47;;;;;;;13.10;11.23;;;28.10;28.00;;;;;;4938354;29;20623;-73
2022/03/23 12:05:23;;;;;;;12.13;11.02;;;29.00;26.40;;;;;;4937167;29;20278;-73
2022/03/23 12:07:49;;;;;;;12.00;10.65;;;28.50;27.40;;;;;;4951438;28;20206;-73
2022/03/23 12:10:23;;;;;;;12.77;10.90;;;29.00;27.90;;;;;;4937352;29;20190;-72
2022/03/23 12:12:50;;;;;;;12.52;10.70;;;29.40;26.00;;;;;;4951868;29;20190;-72
2022/03/23 12:15:27;;;;;;;13.32;11.55;;;29.60;25.70;;;;;;4937329;29;20281;-73
2022/03/23 12:17:55;;;;;;;11.93;10.75;;;29.20;26.90;;;;;;4935294;29;20228;-73
2022/03/23 12:20:37;;;;;;;18.70;12.45;;;28.30;26.70;;;;;;4937083;29;20182;-73
2022/03/23 12:23:26;;;;;;;12.82;11.60;;;28.50;27.90;;;;;;4936932;29;20190;-73
2022/03/23 12:26:08;;;;;;;14.27;11.77;;;28.50;27.00;;;;;;4936766;29;20743;-73
2022/03/23 12:28:43;;;;;;;12.52;11.32;;;29.20;25.70;;;;;;4935583;29;20273;-73
2022/03/23 12:31:14;;;;;;;11.60;10.45;;;29.60;25.00;;;;;;4937228;29;20213;-73
2022/03/23 12:34:02;;;;;;;10.73;9.82;;;29.70;25.50;;;;;;4936687;29;20650;-73
2022/03/23 12:36:56;;;;;;;11.15;10.05;;;29.90;24.70;;;;;;4936582;29;20213;-73
2022/03/23 12:39:28;;;;;;;11.07;10.07;;;29.60;25.20;;;;;;4936673;29;20273;-73
2022/03/23 12:41:55;;;;;;;10.88;9.90;;;30.30;24.50;;;;;;4936163;29;20190;-74
2022/03/23 12:44:29;;;;;;;14.73;11.68;;;30.30;25.30;;;;;;4933640;29;20187;-74
2022/03/23 12:46:54;;;;;;;18.08;15.32;;;29.10;26.70;;;;;;4931477;29;20276;-73
2022/03/23 12:57:53;;;;;;;11.43;10.38;;;27.90;27.60;;;;;;4936172;29;20631;-70
2022/03/23 13:00:31;;;;;;;12.15;11.02;;;28.50;26.70;;;;;;4935820;29;20178;-71
2022/03/23 13:03:06;;;;;;;11.20;10.30;;;28.10;26.50;;;;;;4936212;29;20293;-71
2022/03/23 13:05:38;;;;;;;11.95;10.90;;;28.00;27.00;;;;;;4925469;29;20221;-71
2022/03/23 13:08:33;;;;;;;11.07;9.95;;;27.70;27.60;;;;;;4924750;29;20309;-71
2022/03/23 13:11:09;;;;;;;14.48;12.25;;;28.00;26.10;;;;;;4928547;29;20198;-71
2022/03/23 13:13:36;;;;;;;12.10;11.00;;;28.80;26.20;;;;;;4935600;29;20183;-71
2022/03/23 13:16:04;;;;;;;10.63;9.63;;;28.90;25.20;;;;;;4935677;29;20198;-71
2022/03/23 13:18:31;;;;;;;12.23;9.90;;;28.90;25.80;;;;;;4935339;29;20218;-71
2022/03/23 13:20:58;;;;;;;11.63;10.57;;;29.80;24.50;;;;;;4935783;29;20182;-71
2022/03/23 13:23:26;;;;;;;12.20;11.00;;;29.90;25.40;;;;;;4935748;29;20188;-71
2022/03/23 13:26:05;;;;;;;10.93;9.82;;;29.70;25.60;;;;;;4936624;29;20664;-71
2022/03/23 13:28:35;;;;;;;11.50;10.50;;;29.50;25.10;;;;;;4935578;29;20229;-71
2022/03/23 13:31:03;;;;;;;12.48;10.05;;;28.60;24.90;;;;;;4935600;29;20190;-71
2022/03/23 13:33:40;;;;;;;11.07;10.07;;;28.00;25.30;;;;;;4950313;29;20182;-71
2022/03/23 13:36:07;;;;;;;12.27;10.98;;;27.90;25.20;;;;;;4935539;29;20205;-71
2022/03/23 13:38:38;;;;;;;11.38;10.35;;;28.30;25.10;;;;;;4949834;29;20214;-71
2022/03/23 13:43:52;;;;;;;12.30;11.25;;;28.70;26.30;;;;;;4935320;29;20267;-71
2022/03/23 13:46:19;;;;;;;11.85;10.75;;;29.20;26.00;;;;;;4935318;29;20580;-71
2022/03/23 13:48:54;;;;;;;11.45;10.35;;;29.30;25.80;;;;;;4949244;29;20209;-71
2022/03/23 13:51:20;;;;;;;11.93;10.93;;;29.00;25.70;;;;;;4935510;29;20285;-71
2022/03/23 13:53:48;;;;;;;13.13;11.93;;;28.10;25.90;;;;;;4934169;29;20195;-71
2022/03/23 13:56:17;;;;;;;16.48;12.10;;;27.50;26.10;;;;;;4935731;29;20217;-71
2022/03/23 13:58:44;;;;;;;12.35;11.15;;;27.00;27.10;;;;;;4949508;29;20214;-71
2022/03/23 14:01:10;;;;;;;13.30;12.10;;;26.90;27.00;;;;;;4936430;29;20237;-71
2022/03/23 14:03:38;;;;;;;12.57;11.40;;;27.50;27.00;;;;;;4935999;29;20827;-71
2022/03/23 14:06:11;;;;;;;12.20;11.05;;;27.70;26.40;;;;;;4934937;29;20559;-71
2022/03/23 14:08:38;;;;;;;13.07;11.88;;;27.00;27.80;;;;;;4934630;29;20809;-71
2022/03/23 14:11:05;;;;;;;12.63;10.65;;;26.50;27.60;;;;;;4934815;29;20269;-71
2022/03/23 14:13:31;;;;;;;11.93;10.93;;;26.50;27.60;;;;;;4934736;29;20187;-71
2022/03/23 14:15:58;;;;;;;12.27;10.80;;;27.20;26.80;;;;;;4934610;29;20193;-71
2022/03/23 14:18:26;;;;;;;12.68;11.45;;;27.60;27.80;;;;;;4948726;28;20215;-71
2022/03/23 14:20:55;;;;;;;12.88;11.63;;;27.00;26.70;;;;;;4934791;29;20265;-71
2022/03/23 14:23:26;;;;;;;12.48;11.25;;;26.80;27.10;;;;;;4934870;29;20710;-71
2022/03/23 14:25:52;;;;;;;12.30;11.20;;;26.50;27.70;;;;;;4934750;29;20190;-71
2022/03/23 14:28:22;;;;;;;12.57;11.32;;;26.10;27.80;;;;;;4933878;29;20650;-71
2022/03/23 14:30:54;;;;;;;13.65;12.20;;;25.10;28.60;;;;;;4934580;29;20212;-71
2022/03/23 14:33:21;;;;;;;13.57;12.38;;;25.10;28.90;;;;;;4933131;29;20186;-71
2022/03/23 14:35:47;;;;;;;16.13;12.38;;;25.60;28.30;;;;;;4948944;29;20182;-71
2022/03/23 14:38:15;;;;;;;13.40;12.15;;;26.20;27.70;;;;;;4933730;29;20703;-71
2022/03/23 14:40:53;;;;;;;11.63;10.48;;;27.40;26.80;;;;;;4934189;29;20628;-71
2022/03/23 14:43:29;;;;;;;12.63;11.23;;;27.70;27.00;;;;;;4933815;29;20182;-71
2022/03/23 14:45:56;;;;;;;15.35;10.52;;;26.90;26.70;;;;;;4948881;29;20593;-70
2022/03/23 14:48:30;;;;;;;14.95;11.68;;;27.10;26.80;;;;;;4933581;29;20282;-70
2022/03/23 14:50:59;;;;;;;11.98;10.88;;;27.30;27.40;;;;;;4935623;29;20185;-71
2022/03/23 14:53:26;;;;;;;12.80;11.18;;;27.30;26.20;;;;;;4933845;29;20206;-71
2022/03/23 14:55:59;;;;;;;14.25;12.85;;;27.10;27.70;;;;;;4934422;29;20563;-72
2022/03/23 14:58:26;;;;;;;16.20;14.55;;;27.20;28.10;;;;;;4950594;29;20206;-71
2022/03/23 15:00:53;;;;;;;23.77;19.55;;;27.30;27.60;;;;;;4934516;29;20197;-71
2022/03/23 15:03:19;;;;;;;18.08;15.70;;;26.50;27.50;;;;;;4933814;29;20189;-71
2022/03/23 15:13:58;;;;;;;13.30;12.10;;;26.10;28.00;;;;;;4934033;29;20194;-71
2022/03/23 15:16:24;;;;;;;14.50;13.13;;;25.50;27.70;;;;;;4933482;29;20256;-71
2022/03/23 15:18:50;;;;;;;13.35;12.15;;;24.30;29.00;;;;;;4933160;29;20249;-71
2022/03/23 15:21:19;;;;;;;13.27;11.88;;;23.90;30.00;;;;;;4933660;29;20394;-71
2022/03/23 15:23:48;;;;;;;12.52;11.32;;;23.60;30.20;;;;;;4933680;29;20186;-71
2022/03/23 15:26:14;;;;;;;12.82;11.73;;;23.50;30.00;;;;;;4934116;29;20206;-75
2022/03/23 15:28:40;;;;;;;15.15;11.57;;;23.80;29.70;;;;;;4933256;29;20190;-75
2022/03/23 15:31:05;;;;;;;11.73;10.63;;;23.50;29.40;;;;;;4937125;29;20321;-74
2022/03/23 15:33:32;;;;;;;12.13;11.02;;;23.60;29.80;;;;;;4938109;29;20186;-75
2022/03/23 15:36:02;;;;;;;14.13;10.68;;;23.80;29.00;;;;;;4941414;29;20192;-75
2022/03/23 15:38:31;;;;;;;13.73;10.48;;;23.70;28.90;;;;;;4939347;29;20599;-75
2022/03/23 15:40:58;;;;;;;15.20;10.90;;;24.30;29.10;;;;;;4952409;29;20179;-74
2022/03/23 15:43:24;;;;;;;13.85;12.65;;;25.50;28.90;;;;;;4952138;29;20190;-75
2022/03/23 15:45:50;;;;;;;12.07;11.05;;;26.00;28.50;;;;;;4951899;29;20178;-73
2022/03/23 15:48:16;;;;;;;12.93;11.55;;;26.40;27.60;;;;;;4935611;29;20666;-74
2022/03/23 15:50:42;;;;;;;13.05;10.90;;;26.40;27.20;;;;;;4937917;29;20218;-74
2022/03/23 15:53:09;;;;;;;12.75;11.65;;;26.10;27.40;;;;;;4938995;29;20746;-75
2022/03/23 15:55:35;;;;;;;12.25;11.05;;;25.80;27.80;;;;;;4952056;29;20604;-74
2022/03/23 15:58:01;;;;;;;11.18;10.15;;;25.50;28.40;;;;;;4936673;29;20214;-75
2022/03/23 16:00:27;;;;;;;11.30;10.40;;;25.50;28.10;;;;;;4951908;29;20263;-75
2022/03/23 16:02:54;;;;;;;11.15;10.05;;;25.50;28.30;;;;;;4936323;29;20209;-75
2022/03/23 16:05:20;;;;;;;10.52;9.43;;;25.60;28.20;;;;;;4953812;29;20792;-74
2022/03/23 16:07:46;;;;;;;11.13;10.02;;;26.00;27.70;;;;;;4951393;28;20238;-75
2022/03/23 16:10:12;;;;;;;11.00;10.00;;;25.80;28.10;;;;;;4937213;29;20190;-73
2022/03/23 16:12:40;;;;;;;18.40;12.50;;;25.70;27.50;;;;;;4951809;29;20187;-74
2022/03/23 16:15:06;;;;;;;14.98;13.45;;;26.00;28.20;;;;;;4951644;29;20183;-74
2022/03/23 16:17:35;;;;;;;14.35;12.85;;;26.00;28.50;;;;;;4936065;29;20207;-75
2022/03/23 16:20:11;;;;;;;16.63;14.30;;;25.60;28.50;;;;;;4936933;29;20183;-75
2022/03/23 16:22:38;;;;;;;19.13;17.15;;;25.40;28.50;;;;;;4937258;29;20178;-75
2022/03/23 16:25:06;;;;;;;21.45;19.23;;;25.00;28.70;;;;;;4936522;29;20205;-75
2022/03/23 16:27:33;;;;;;;19.38;16.20;;;25.00;28.70;;;;;;4950931;28;20679;-75
2022/03/23 16:29:59;;;;;;;13.90;12.60;;;24.40;28.90;;;;;;4936470;29;20209;-74
2022/03/23 16:32:27;;;;;;;12.68;11.57;;;23.40;29.50;;;;;;4936265;29;20193;-70
2022/03/23 16:34:54;;;;;;;13.13;11.82;;;22.50;30.60;;;;;;4936367;29;20600;-69
2022/03/23 16:37:20;;;;;;;12.73;11.45;;;22.20;32.20;;;;;;4935948;29;20210;-70
2022/03/23 16:39:47;;;;;;;16.25;11.75;;;22.20;32.70;;;;;;4936034;29;20218;-70
2022/03/23 16:42:13;;;;;;;12.23;11.13;;;22.60;31.90;;;;;;4934830;29;20186;-71
2022/03/23 16:44:39;;;;;;;11.73;10.63;;;22.60;32.30;;;;;;4929787;29;20242;-70
2022/03/23 16:47:06;;;;;;;10.95;9.85;;;22.60;31.70;;;;;;4933553;29;20206;-69
2022/03/23 16:49:32;;;;;;;13.43;10.95;;;22.30;32.10;;;;;;4936289;29;20619;-70
2022/03/23 16:51:57;;;;;;;13.98;10.82;;;22.20;32.30;;;;;;4935908;29;20282;-70
2022/03/23 16:54:28;;;;;;;12.63;10.77;;;21.80;32.50;;;;;;4935792;29;20198;-70
2022/03/23 16:56:54;;;;;;;11.32;10.15;;;21.20;33.30;;;;;;4935819;29;20285;-70
2022/03/23 16:59:21;;;;;;;12.50;11.48;;;20.70;33.90;;;;;;4935313;29;20639;-70
2022/03/23 17:01:48;;;;;;;16.73;12.57;;;19.80;35.40;;;;;;4935851;29;20187;-70
2022/03/23 17:12:29;;;;;;;27.23;24.87;;;17.40;41.20;;;;;;4935735;29;20183;-70
2022/03/23 17:15:14;;;;;;;23.13;17.40;;;17.00;41.70;;;;;;4935688;29;20626;-69
2022/03/23 17:17:43;;;;;;;17.23;15.60;;;16.70;42.40;;;;;;4935369;29;20292;-70